SAZB/BHI METAR and TAF weather

Enter ICAO airport designator
Station Type Date Time Source
SAZB METAR 2020/01/14 14:52 UTC NOAA

SAZB 141452Z 32017G27KT 9999 FEW020 28/20 Q1004


Station Type Date Time Source
SAZB Decoded METAR 2020/01/14 14:52 UTC NOAA

Bahia Blanca Aerodrome, Argentina (SAZB) 38-44S 062-10W 83M
Jan 14, 2020 - 09:52 AM EST / 2020.01.14 1452 UTC
Wind: from the NW (320 degrees) at 20 MPH (17 KT) gusting to 31 MPH (27 KT):0
Visibility: greater than 7 mile(s):0
Sky conditions: mostly clear
Temperature: 82 F (28 C)
Dew Point: 68 F (20 C)
Relative Humidity: 61%
Pressure (altimeter): 29.65 in. Hg (1004 hPa)
ob: SAZB 141452Z 32017G27KT 9999 FEW020 28/20 Q1004
cycle: 15

Station Type Date Time Source
SAZB TAF 2020/01/14 00:54 UTC NOAA

TAF SAZB 142300Z 1500/1524 24015G25KT CAVOK TX22/1518Z TN16/1510Z
BECMG 1510/1512 21020KT

Example: see airport list